Time;durP1;ratioP1;P1;durP2;ratioP2;P2;SDS_P1;SDS_P2;PMS_P1;PMS_P2;Temp;Humidity;BMP_temperature;BMP_pressure;BME280_temperature;BME280_humidity;BME280_pressure;Samples;Min_cycle;Max_cycle;Signal;HPM_P1;HPM_P2
2023/08/07 00:00:29;;;;;;;7.90;2.05;;;13.80;99.90;;;;;;5047800;28;20166;-69
2023/08/07 00:02:55;;;;;;;6.90;2.25;;;13.80;99.90;;;;;;5046748;28;20250;-69
2023/08/07 00:05:21;;;;;;;10.15;2.25;;;13.70;99.90;;;;;;5034729;28;20210;-68
2023/08/07 00:07:47;;;;;;;7.25;1.80;;;13.60;99.90;;;;;;5045233;28;20312;-68
2023/08/07 00:10:13;;;;;;;10.00;2.47;;;13.80;99.90;;;;;;5041014;28;20174;-69
2023/08/07 00:12:38;;;;;;;4.78;1.85;;;13.50;99.90;;;;;;5038045;28;20174;-68
2023/08/07 00:15:04;;;;;;;6.82;2.42;;;13.60;99.90;;;;;;5047581;28;20694;-68
2023/08/07 00:17:30;;;;;;;6.95;2.30;;;13.60;99.90;;;;;;5034933;28;20240;-68
2023/08/07 00:19:56;;;;;;;6.88;2.45;;;13.80;99.90;;;;;;5038823;28;20189;-68
2023/08/07 00:22:21;;;;;;;8.73;2.08;;;13.60;99.90;;;;;;5045099;28;20657;-68
2023/08/07 00:24:47;;;;;;;8.57;2.40;;;13.70;99.90;;;;;;5035551;28;20214;-69
2023/08/07 00:27:14;;;;;;;9.68;2.28;;;13.50;99.90;;;;;;5045556;28;20204;-68
2023/08/07 00:29:39;;;;;;;8.77;2.83;;;13.60;99.90;;;;;;5036034;28;20543;-68
2023/08/07 00:32:06;;;;;;;5.90;2.28;;;13.50;99.90;;;;;;5042334;28;20174;-68
2023/08/07 00:34:31;;;;;;;8.20;2.53;;;13.60;99.90;;;;;;5031813;28;20175;-68
2023/08/07 00:36:57;;;;;;;7.20;2.35;;;13.40;99.90;;;;;;5027504;28;20182;-69
2023/08/07 00:39:24;;;;;;;7.00;1.98;;;13.40;99.90;;;;;;5031781;28;20653;-69
2023/08/07 00:41:50;;;;;;;5.53;2.22;;;13.50;99.90;;;;;;5030476;28;20189;-69
2023/08/07 00:44:15;;;;;;;5.63;2.08;;;13.40;99.90;;;;;;5034385;28;20214;-69
2023/08/07 00:46:42;;;;;;;7.80;2.30;;;13.30;99.90;;;;;;5031023;28;20178;-69
2023/08/07 00:49:09;;;;;;;5.22;2.13;;;13.40;99.90;;;;;;5029245;28;20248;-69
2023/08/07 00:51:36;;;;;;;6.15;2.30;;;13.40;99.90;;;;;;5031077;28;20212;-69
2023/08/07 00:54:04;;;;;;;6.20;1.73;;;13.30;99.90;;;;;;5030633;28;20217;-68
2023/08/07 00:56:31;;;;;;;6.25;1.88;;;13.40;99.90;;;;;;5029294;28;20186;-69
2023/08/07 00:59:01;;;;;;;5.57;1.90;;;13.30;99.90;;;;;;5030714;28;20178;-69
2023/08/07 01:01:27;;;;;;;5.07;1.70;;;13.40;99.90;;;;;;5048457;28;20189;-69
2023/08/07 01:03:53;;;;;;;3.23;1.77;;;13.40;99.90;;;;;;5050547;28;20201;-69
2023/08/07 01:06:18;;;;;;;6.90;1.95;;;13.40;99.90;;;;;;5050424;28;20628;-69
2023/08/07 01:08:45;;;;;;;6.32;1.75;;;13.30;99.90;;;;;;5034538;28;20182;-69
2023/08/07 01:11:49;;;;;;;6.00;1.90;;;13.30;99.90;;;;;;5037727;28;20173;-69
2023/08/07 01:14:40;;;;;;;5.72;1.58;;;13.20;99.90;;;;;;5050424;28;20192;-69
2023/08/07 01:17:07;;;;;;;4.78;1.67;;;13.20;99.90;;;;;;5018397;28;20178;-68
2023/08/07 01:19:35;;;;;;;5.22;2.05;;;13.30;99.90;;;;;;5029291;28;20170;-69
2023/08/07 01:22:19;;;;;;;5.05;1.55;;;13.20;99.90;;;;;;5044840;28;20661;-69
2023/08/07 01:24:47;;;;;;;7.05;1.83;;;13.50;99.90;;;;;;5048042;28;20221;-69
2023/08/07 01:27:18;;;;;;;6.72;1.95;;;13.30;99.90;;;;;;5049550;28;20635;-69
2023/08/07 01:30:03;;;;;;;6.13;2.05;;;13.30;99.90;;;;;;5050220;28;20288;-69
2023/08/07 01:33:07;;;;;;;6.57;1.90;;;13.30;99.90;;;;;;5031173;28;20178;-69
2023/08/07 01:35:36;;;;;;;8.00;1.90;;;13.20;99.90;;;;;;5025932;28;20215;-69
2023/08/07 01:38:03;;;;;;;7.47;2.17;;;13.40;99.90;;;;;;5026097;28;20282;-69
2023/08/07 01:40:29;;;;;;;5.22;2.17;;;13.40;99.90;;;;;;5050219;28;20170;-69
2023/08/07 01:42:55;;;;;;;6.07;2.15;;;13.40;99.90;;;;;;5041874;28;20170;-69
2023/08/07 01:45:30;;;;;;;6.15;1.73;;;13.50;99.90;;;;;;5042161;28;20643;-69
2023/08/07 01:47:56;;;;;;;5.70;2.30;;;13.40;99.90;;;;;;5050012;28;20211;-69
2023/08/07 01:50:23;;;;;;;5.28;2.30;;;13.40;99.90;;;;;;5049664;28;20184;-69
2023/08/07 01:52:49;;;;;;;5.13;2.17;;;13.40;99.90;;;;;;5033418;28;20174;-69
2023/08/07 01:55:16;;;;;;;5.30;1.83;;;13.40;99.90;;;;;;5040688;28;20173;-69
2023/08/07 01:57:41;;;;;;;5.73;2.00;;;13.40;99.90;;;;;;5049877;28;20260;-69
2023/08/07 02:00:08;;;;;;;4.85;2.00;;;13.50;99.90;;;;;;5041708;28;20231;-68
2023/08/07 02:02:34;;;;;;;4.28;1.73;;;13.30;99.90;;;;;;5033731;28;20174;-69
2023/08/07 02:05:00;;;;;;;9.63;1.90;;;13.40;99.90;;;;;;5032281;28;20799;-69
2023/08/07 02:07:26;;;;;;;4.40;2.17;;;13.50;99.90;;;;;;5048342;28;20204;-69
2023/08/07 02:09:52;;;;;;;5.55;2.28;;;;;;;;;;5053651;28;20173;-69
2023/08/07 02:12:17;;;;;;;4.30;2.20;;;13.40;99.90;;;;;;5054001;28;20166;-69
2023/08/07 02:14:43;;;;;;;7.00;1.98;;;13.40;99.90;;;;;;5050237;28;20179;-69
2023/08/07 02:17:09;;;;;;;4.27;2.17;;;;;;;;;;5029886;28;20189;-69
2023/08/07 02:19:35;;;;;;;8.25;2.00;;;13.40;99.90;;;;;;5046349;28;20185;-69
2023/08/07 02:22:01;;;;;;;6.43;2.85;;;13.30;99.90;;;;;;5048230;28;20173;-69
2023/08/07 02:24:26;;;;;;;8.02;2.78;;;13.50;99.90;;;;;;5051994;28;20303;-68
2023/08/07 02:26:52;;;;;;;8.52;2.58;;;13.00;99.90;;;;;;5053229;28;20196;-69
2023/08/07 02:29:18;;;;;;;8.98;3.17;;;13.30;99.90;;;;;;5052005;28;20272;-69
2023/08/07 02:31:43;;;;;;;6.50;2.40;;;13.30;99.90;;;;;;5050613;28;20169;-68
2023/08/07 02:34:09;;;;;;;7.70;2.70;;;13.10;99.90;;;;;;5051954;28;20204;-69
2023/08/07 02:36:34;;;;;;;9.82;2.75;;;13.30;99.90;;;;;;5052198;28;20219;-68
2023/08/07 02:39:00;;;;;;;7.90;2.00;;;13.00;99.90;;;;;;5052445;28;20255;-68
2023/08/07 02:41:26;;;;;;;5.47;2.08;;;12.80;99.90;;;;;;5051378;28;20217;-68
2023/08/07 02:43:51;;;;;;;4.45;2.15;;;13.10;99.90;;;;;;5051399;28;20685;-68
2023/08/07 02:46:17;;;;;;;10.77;2.08;;;13.10;99.90;;;;;;5051289;28;20169;-68
2023/08/07 02:48:43;;;;;;;4.68;1.92;;;13.60;99.90;;;;;;5034470;28;20640;-69
2023/08/07 02:51:09;;;;;;;4.30;2.00;;;12.80;99.90;;;;;;5049368;28;20177;-68
2023/08/07 02:53:35;;;;;;;8.38;2.38;;;13.30;99.90;;;;;;5052478;28;20227;-68
2023/08/07 02:56:01;;;;;;;5.60;2.05;;;;;;;;;;5051959;28;20174;-68
2023/08/07 02:58:26;;;;;;;11.43;2.70;;;12.90;99.90;;;;;;5042717;28;20181;-68
2023/08/07 03:00:52;;;;;;;6.38;2.00;;;15.50;99.90;;;;;;5016041;28;20541;-68
2023/08/07 03:03:18;;;;;;;5.68;2.17;;;12.90;99.90;;;;;;5024942;28;20210;-68
2023/08/07 03:05:50;;;;;;;5.20;1.98;;;12.90;99.90;;;;;;5043866;28;20216;-69
2023/08/07 03:08:16;;;;;;;4.35;1.80;;;12.80;99.90;;;;;;5032128;28;20209;-68
2023/08/07 03:10:42;;;;;;;4.43;1.70;;;12.70;99.90;;;;;;5032471;28;20209;-68
2023/08/07 03:13:07;;;;;;;8.40;2.73;;;12.80;99.90;;;;;;5042416;28;20678;-68
2023/08/07 03:15:33;;;;;;;4.60;1.77;;;12.80;99.90;;;;;;5052148;28;20177;-68
2023/08/07 03:17:59;;;;;;;4.18;1.70;;;12.80;99.90;;;;;;5050778;28;20224;-68
2023/08/07 03:20:24;;;;;;;3.03;1.83;;;12.90;99.90;;;;;;5051907;28;20655;-69
2023/08/07 03:22:50;;;;;;;9.13;1.77;;;12.60;99.90;;;;;;5050156;28;20173;-68
2023/08/07 03:25:15;;;;;;;6.30;2.57;;;12.60;99.90;;;;;;5035576;28;20304;-69
2023/08/07 03:27:41;;;;;;;4.07;1.87;;;12.80;99.90;;;;;;5044219;28;20243;-68
2023/08/07 03:30:07;;;;;;;4.15;1.98;;;12.80;99.90;;;;;;5042448;28;20186;-69
2023/08/07 03:32:33;;;;;;;5.13;1.83;;;;;;;;;;5051734;28;20246;-69
2023/08/07 03:34:59;;;;;;;8.13;1.70;;;12.60;99.90;;;;;;5050410;28;20211;-69
2023/08/07 03:37:24;;;;;;;3.85;1.90;;;12.60;99.90;;;;;;5044265;28;20260;-69
2023/08/07 03:39:50;;;;;;;7.43;1.83;;;12.60;99.90;;;;;;5034442;28;20177;-69
2023/08/07 03:42:16;;;;;;;5.17;1.80;;;12.60;99.90;;;;;;5051133;28;20587;-69
2023/08/07 03:44:41;;;;;;;7.20;2.00;;;12.60;99.90;;;;;;5051849;28;20877;-69
2023/08/07 03:47:07;;;;;;;5.60;2.10;;;12.60;99.90;;;;;;5051596;28;20326;-69
2023/08/07 03:49:33;;;;;;;9.03;2.30;;;12.60;99.90;;;;;;5051135;28;20185;-69
2023/08/07 03:51:59;;;;;;;7.40;1.80;;;12.60;99.90;;;;;;5051679;28;20184;-69
2023/08/07 03:54:25;;;;;;;9.70;1.70;;;12.70;99.90;;;;;;5039530;28;20177;-69
2023/08/07 03:56:51;;;;;;;9.47;2.03;;;12.50;99.90;;;;;;5032924;28;20554;-68
2023/08/07 03:59:17;;;;;;;5.97;1.93;;;10.90;99.90;;;;;;5032187;28;20216;-68
2023/08/07 04:01:43;;;;;;;6.50;2.20;;;12.50;99.90;;;;;;5030499;28;20515;-69
2023/08/07 04:04:08;;;;;;;5.40;2.30;;;12.40;99.90;;;;;;5031227;28;20219;-69
2023/08/07 04:06:34;;;;;;;6.70;2.07;;;12.40;99.90;;;;;;5030646;28;20272;-69
2023/08/07 04:08:59;;;;;;;5.90;1.87;;;12.40;99.90;;;;;;5026576;28;20274;-69
2023/08/07 04:11:26;;;;;;;10.43;2.10;;;12.40;99.90;;;;;;5037591;28;20652;-69
2023/08/07 04:13:52;;;;;;;5.70;2.10;;;12.50;99.90;;;;;;5051346;28;20165;-69
2023/08/07 04:16:17;;;;;;;4.53;2.10;;;12.50;99.90;;;;;;5050327;28;20237;-68
2023/08/07 04:18:43;;;;;;;5.93;2.20;;;12.40;99.90;;;;;;5051114;28;20172;-69
2023/08/07 04:21:08;;;;;;;4.80;1.80;;;12.40;99.90;;;;;;5047650;28;20181;-69
2023/08/07 04:23:34;;;;;;;6.03;2.00;;;12.20;99.90;;;;;;5051124;28;20538;-69
2023/08/07 04:26:00;;;;;;;8.67;2.00;;;12.30;99.90;;;;;;5044907;28;20215;-68
2023/08/07 04:28:28;;;;;;;4.63;1.90;;;12.30;99.90;;;;;;5031141;28;20519;-69
2023/08/07 04:30:54;;;;;;;3.27;1.97;;;12.30;99.90;;;;;;5038409;28;20226;-69
2023/08/07 04:33:22;;;;;;;7.17;1.90;;;12.30;99.90;;;;;;5031691;28;20205;-69
2023/08/07 04:35:48;;;;;;;8.00;2.13;;;12.30;99.90;;;;;;5031159;28;20174;-69
2023/08/07 04:38:14;;;;;;;7.47;1.87;;;12.20;99.90;;;;;;5043493;28;20225;-69
2023/08/07 04:40:47;;;;;;;4.63;1.53;;;12.10;99.90;;;;;;5038217;28;20185;-68
2023/08/07 04:43:14;;;;;;;5.43;2.17;;;12.30;99.90;;;;;;5046666;28;20239;-69
2023/08/07 04:45:41;;;;;;;6.87;1.93;;;12.10;99.90;;;;;;5050532;28;20239;-69
2023/08/07 04:48:09;;;;;;;4.97;1.90;;;12.10;99.90;;;;;;5051023;28;20287;-68
2023/08/07 04:50:35;;;;;;;4.77;2.10;;;12.10;99.90;;;;;;5041821;28;20203;-69
2023/08/07 04:53:00;;;;;;;5.50;2.50;;;12.10;99.90;;;;;;5048222;28;20181;-68
2023/08/07 04:55:26;;;;;;;6.40;2.07;;;12.10;99.90;;;;;;5036017;28;20273;-69
2023/08/07 04:57:54;;;;;;;6.17;2.10;;;12.10;99.90;;;;;;5045886;28;20177;-69
2023/08/07 05:00:21;;;;;;;4.40;2.03;;;12.20;99.90;;;;;;5042281;28;20598;-69
2023/08/07 05:02:48;;;;;;;5.20;1.97;;;12.10;99.90;;;;;;5050565;28;20180;-69
2023/08/07 05:05:14;;;;;;;7.80;2.20;;;12.30;99.90;;;;;;5050478;28;20215;-69
2023/08/07 05:07:40;;;;;;;7.33;2.47;;;12.20;99.90;;;;;;5049800;28;20188;-68
2023/08/07 05:10:07;;;;;;;4.47;2.00;;;12.30;99.90;;;;;;5040205;28;20278;-69
2023/08/07 05:12:32;;;;;;;7.17;1.90;;;12.30;99.90;;;;;;5028877;28;20253;-69
2023/08/07 05:14:58;;;;;;;6.37;2.17;;;12.20;99.90;;;;;;5024335;28;20189;-69
2023/08/07 05:17:23;;;;;;;3.90;1.80;;;12.30;99.90;;;;;;5026968;28;20176;-68
2023/08/07 05:19:49;;;;;;;7.30;2.00;;;12.30;99.90;;;;;;5017229;28;20629;-69
2023/08/07 05:22:15;;;;;;;7.10;2.30;;;12.40;99.90;;;;;;5010517;28;20182;-69
2023/08/07 05:24:41;;;;;;;5.07;2.10;;;12.40;99.90;;;;;;5027004;28;20213;-69
2023/08/07 05:27:08;;;;;;;8.83;2.87;;;12.50;99.90;;;;;;5027047;28;20170;-69
2023/08/07 05:29:34;;;;;;;9.47;1.97;;;12.40;99.90;;;;;;5025497;28;20177;-68
2023/08/07 05:32:00;;;;;;;2.77;1.90;;;12.40;99.90;;;;;;5049652;28;20181;-69
2023/08/07 05:34:25;;;;;;;2.67;1.90;;;12.50;99.90;;;;;;5050546;28;20231;-68
2023/08/07 05:36:51;;;;;;;4.73;2.37;;;12.60;99.90;;;;;;5047222;28;20276;-69
2023/08/07 05:39:17;;;;;;;8.43;2.42;;;12.50;99.90;;;;;;5051278;28;20193;-69
2023/08/07 05:41:42;;;;;;;6.77;2.53;;;12.50;99.90;;;;;;5053235;28;20526;-69
2023/08/07 05:44:08;;;;;;;5.63;2.57;;;12.50;99.90;;;;;;5054069;28;20271;-68
2023/08/07 05:46:33;;;;;;;7.85;2.33;;;12.70;99.90;;;;;;5053341;28;20169;-69
2023/08/07 05:48:59;;;;;;;4.70;2.47;;;12.80;99.90;;;;;;5051521;28;20234;-69
2023/08/07 05:51:24;;;;;;;5.10;2.33;;;12.80;99.90;;;;;;5053691;28;20184;-69
2023/08/07 05:53:50;;;;;;;5.80;2.20;;;12.80;99.90;;;;;;5052531;28;20348;-69
2023/08/07 05:56:17;;;;;;;8.77;2.80;;;12.90;99.90;;;;;;5039827;28;20189;-69
2023/08/07 05:58:43;;;;;;;4.23;2.40;;;12.90;99.90;;;;;;5033218;28;20186;-69
2023/08/07 06:01:09;;;;;;;5.83;2.50;;;12.80;99.90;;;;;;5033858;28;20542;-68
2023/08/07 06:03:34;;;;;;;6.53;2.70;;;13.00;99.90;;;;;;5036374;28;20205;-69
2023/08/07 06:06:00;;;;;;;4.40;2.40;;;13.20;99.90;;;;;;5054071;28;20275;-68
2023/08/07 06:08:26;;;;;;;6.20;3.00;;;;;;;;;;5037885;28;20177;-69
2023/08/07 06:10:52;;;;;;;6.57;2.45;;;13.30;99.90;;;;;;5014042;28;20182;-69
2023/08/07 06:13:17;;;;;;;7.07;2.58;;;13.20;99.90;;;;;;5013683;28;20174;-68
2023/08/07 06:15:43;;;;;;;6.20;2.47;;;13.30;99.90;;;;;;5061581;28;20181;-68
2023/08/07 06:18:08;;;;;;;5.93;2.53;;;13.10;99.90;;;;;;5033521;28;20180;-68
2023/08/07 06:20:35;;;;;;;6.40;2.10;;;13.40;99.90;;;;;;5041115;28;20227;-68
2023/08/07 06:23:00;;;;;;;5.30;2.20;;;13.40;99.90;;;;;;5044720;28;20243;-69
2023/08/07 06:25:27;;;;;;;4.60;2.58;;;13.40;99.90;;;;;;5033086;28;20731;-68
2023/08/07 06:27:53;;;;;;;6.20;2.20;;;13.60;99.90;;;;;;5035125;28;20170;-72
2023/08/07 06:30:18;;;;;;;7.85;2.47;;;13.70;99.90;;;;;;5046687;28;20239;-71
2023/08/07 06:32:44;;;;;;;5.95;2.25;;;13.70;99.90;;;;;;5042458;28;20184;-71
2023/08/07 06:35:09;;;;;;;6.13;2.42;;;13.70;99.90;;;;;;5048911;28;20251;-72
2023/08/07 06:37:35;;;;;;;9.30;2.50;;;13.90;99.90;;;;;;5034650;28;20229;-73
2023/08/07 06:40:01;;;;;;;5.82;1.90;;;14.00;99.90;;;;;;5033180;28;20577;-72
2023/08/07 06:42:27;;;;;;;6.47;2.22;;;13.80;99.90;;;;;;5033203;28;20186;-72
2023/08/07 06:44:52;;;;;;;7.93;2.22;;;14.10;99.90;;;;;;5037382;28;20267;-72
2023/08/07 06:47:18;;;;;;;5.50;2.20;;;14.10;99.90;;;;;;5050583;28;20312;-73
2023/08/07 06:49:44;;;;;;;6.65;2.13;;;;;;;;;;5032172;28;20548;-73
2023/08/07 06:52:09;;;;;;;4.35;1.83;;;14.40;99.90;;;;;;5052626;28;20539;-72
2023/08/07 06:54:35;;;;;;;4.38;1.92;;;;;;;;;;5024836;28;20208;-71
2023/08/07 06:57:01;;;;;;;3.65;1.45;;;15.00;99.90;;;;;;5043103;28;20174;-71
2023/08/07 06:59:27;;;;;;;8.45;1.77;;;15.90;99.90;;;;;;5032690;28;20181;-72
2023/08/07 07:01:52;;;;;;;4.63;1.55;;;15.00;99.90;;;;;;5032785;28;20672;-72
2023/08/07 07:04:18;;;;;;;5.15;1.73;;;15.30;99.90;;;;;;5029580;28;20277;-72
2023/08/07 07:06:44;;;;;;;5.90;1.50;;;15.60;99.90;;;;;;5030865;28;20170;-72
2023/08/07 07:09:09;;;;;;;4.85;1.38;;;15.70;99.90;;;;;;5044528;28;20704;-72
2023/08/07 07:11:35;;;;;;;5.63;1.73;;;15.60;99.90;;;;;;5032243;28;20181;-72
2023/08/07 07:14:01;;;;;;;5.10;1.33;;;;;;;;;;5026301;28;20174;-72
2023/08/07 07:16:27;;;;;;;2.40;1.23;;;15.80;99.90;;;;;;5031769;28;20190;-72
2023/08/07 07:18:56;;;;;;;5.05;1.58;;;16.00;99.90;;;;;;5041517;28;20180;-71
2023/08/07 07:21:21;;;;;;;3.80;1.50;;;16.50;99.90;;;;;;5028134;28;20256;-70
2023/08/07 07:23:47;;;;;;;4.93;1.45;;;;;;;;;;5015322;28;20210;-71
2023/08/07 07:26:13;;;;;;;5.13;2.40;;;;;;;;;;5049883;28;20181;-71
2023/08/07 07:28:39;;;;;;;3.42;1.35;;;16.40;99.90;;;;;;5052378;28;20248;-72
2023/08/07 07:31:05;;;;;;;5.47;1.73;;;16.50;99.90;;;;;;5051121;28;20173;-72
2023/08/07 07:33:30;;;;;;;8.40;1.70;;;16.40;99.90;;;;;;5050475;28;20493;-72
2023/08/07 07:35:56;;;;;;;4.68;1.35;;;16.50;99.90;;;;;;5052160;28;20219;-71
2023/08/07 07:38:22;;;;;;;2.38;1.00;;;17.40;99.90;;;;;;5046113;28;20537;-70
2023/08/07 07:40:47;;;;;;;2.22;1.02;;;16.60;99.90;;;;;;5036736;28;20544;-69
2023/08/07 07:43:13;;;;;;;2.25;1.17;;;16.40;99.90;;;;;;5038052;28;20541;-69
2023/08/07 07:45:38;;;;;;;6.20;1.20;;;16.50;99.90;;;;;;5050906;28;20217;-70
2023/08/07 07:48:06;;;;;;;4.10;1.60;;;16.40;99.90;;;;;;5032359;28;20253;-70
2023/08/07 07:50:31;;;;;;;2.08;0.93;;;16.60;99.90;;;;;;5033016;28;20230;-70
2023/08/07 07:52:57;;;;;;;2.70;1.10;;;16.70;99.90;;;;;;5033290;28;20178;-70
2023/08/07 07:55:24;;;;;;;5.38;1.20;;;16.50;99.90;;;;;;5039048;28;20183;-70
2023/08/07 07:57:50;;;;;;;4.65;1.23;;;16.50;99.90;;;;;;5049209;28;20185;-70
2023/08/07 08:00:16;;;;;;;4.18;1.15;;;16.80;99.90;;;;;;5047726;28;20230;-69
2023/08/07 08:02:42;;;;;;;3.63;1.20;;;17.00;99.90;;;;;;5040137;28;20185;-70
2023/08/07 08:05:10;;;;;;;2.45;1.10;;;17.00;99.90;;;;;;5021896;28;20222;-70
2023/08/07 08:07:36;;;;;;;4.43;1.10;;;17.20;99.90;;;;;;5033997;28;20190;-70
2023/08/07 08:10:02;;;;;;;3.30;1.10;;;17.20;99.90;;;;;;5011812;28;20175;-70
2023/08/07 08:12:30;;;;;;;3.03;1.13;;;17.20;99.90;;;;;;5031415;28;20260;-70
2023/08/07 08:14:56;;;;;;;6.32;1.35;;;17.20;99.90;;;;;;5017493;28;20182;-70
2023/08/07 08:17:23;;;;;;;2.65;0.80;;;17.20;99.90;;;;;;5045860;28;20181;-71
2023/08/07 08:19:49;;;;;;;2.05;0.85;;;17.40;99.90;;;;;;5033244;28;20186;-70
2023/08/07 08:22:15;;;;;;;2.33;1.10;;;17.60;99.90;;;;;;5042540;28;20197;-71
2023/08/07 08:24:41;;;;;;;3.55;1.08;;;17.80;99.90;;;;;;5022233;28;20228;-71
2023/08/07 08:27:07;;;;;;;2.78;1.08;;;;;;;;;;5022880;28;20182;-74
2023/08/07 08:29:33;;;;;;;6.57;1.25;;;;;;;;;;5046538;28;20182;-75
2023/08/07 08:31:58;;;;;;;3.67;1.20;;;18.40;99.90;;;;;;5041400;28;20768;-75
2023/08/07 08:34:26;;;;;;;4.45;1.20;;;18.70;99.90;;;;;;5030954;28;20237;-74
2023/08/07 08:36:52;;;;;;;3.83;1.20;;;;;;;;;;5031300;28;20177;-74
2023/08/07 08:39:18;;;;;;;3.33;1.27;;;20.30;99.90;;;;;;5035439;28;20331;-74
2023/08/07 08:41:47;;;;;;;4.53;1.25;;;20.00;99.90;;;;;;5027763;28;20251;-73
2023/08/07 08:44:14;;;;;;;3.63;1.30;;;21.30;99.90;;;;;;5030914;28;20209;-75
2023/08/07 08:46:42;;;;;;;6.32;1.73;;;22.00;99.90;;;;;;5037078;28;20177;-77
2023/08/07 08:49:10;;;;;;;4.93;1.52;;;21.60;99.90;;;;;;5032371;28;20683;-77
2023/08/07 08:51:37;;;;;;;3.72;1.17;;;22.50;99.90;;;;;;5027363;28;20178;-75
2023/08/07 08:54:03;;;;;;;7.13;1.50;;;22.30;99.90;;;;;;5043655;28;20531;-76
2023/08/07 08:56:30;;;;;;;2.15;1.00;;;22.80;99.90;;;;;;5026659;28;20198;-76
2023/08/07 08:58:56;;;;;;;8.10;1.55;;;22.80;99.90;;;;;;5026581;28;20640;-76
2023/08/07 09:01:22;;;;;;;4.25;1.80;;;23.00;99.90;;;;;;5036627;28;20192;-75
2023/08/07 09:03:48;;;;;;;6.57;1.92;;;23.40;99.90;;;;;;5024352;28;20261;-75
2023/08/07 09:06:14;;;;;;;4.35;1.58;;;23.50;99.90;;;;;;5013833;28;20190;-73
2023/08/07 09:08:43;;;;;;;3.65;1.00;;;23.10;99.90;;;;;;5032168;28;20177;-74
2023/08/07 09:11:11;;;;;;;2.80;1.20;;;23.00;99.90;;;;;;5031330;28;20269;-77
2023/08/07 09:13:38;;;;;;;4.60;1.20;;;23.20;99.90;;;;;;5036784;28;20186;-75
2023/08/07 09:16:07;;;;;;;4.43;0.98;;;22.60;99.90;;;;;;5030375;28;20304;-75
2023/08/07 09:18:33;;;;;;;2.10;1.00;;;22.50;99.90;;;;;;5020833;28;20206;-75
2023/08/07 09:21:00;;;;;;;2.22;1.15;;;22.00;99.90;;;;;;5021693;28;20608;-74
2023/08/07 09:23:26;;;;;;;3.45;0.95;;;;;;;;;;5016094;28;20174;-75
2023/08/07 09:26:02;;;;;;;4.10;1.38;;;21.40;99.90;;;;;;5038036;28;20312;-74
2023/08/07 09:28:29;;;;;;;3.58;1.23;;;21.20;99.90;;;;;;5023701;28;20553;-76
2023/08/07 09:30:55;;;;;;;4.95;1.20;;;21.50;99.90;;;;;;5043018;28;20283;-74
2023/08/07 09:33:28;;;;;;;4.20;1.15;;;21.60;99.90;;;;;;5022486;28;20170;-74
2023/08/07 09:36:01;;;;;;;4.13;1.15;;;21.10;99.90;;;;;;5030029;28;20198;-74
2023/08/07 09:38:34;;;;;;;5.47;1.30;;;21.40;99.90;;;;;;5029244;28;20252;-73
2023/08/07 09:41:02;;;;;;;3.70;1.35;;;21.10;99.90;;;;;;5029276;28;20372;-73
2023/08/07 09:43:28;;;;;;;2.75;1.25;;;22.00;99.90;;;;;;5027778;28;20251;-72
2023/08/07 09:46:10;;;;;;;3.45;1.30;;;22.10;99.90;;;;;;5028125;28;20673;-72
2023/08/07 09:48:41;;;;;;;3.63;0.85;;;22.00;99.90;;;;;;5028126;28;20273;-72
2023/08/07 09:51:07;;;;;;;3.63;0.90;;;21.50;99.90;;;;;;5028274;28;20200;-73
2023/08/07 09:53:33;;;;;;;4.65;1.02;;;21.60;99.90;;;;;;5028471;28;20900;-73
2023/08/07 09:55:59;;;;;;;2.65;0.88;;;21.40;99.90;;;;;;5028268;28;20177;-73
2023/08/07 09:58:26;;;;;;;3.95;1.33;;;21.50;99.90;;;;;;5028652;28;20232;-72
2023/08/07 10:00:53;;;;;;;2.90;1.08;;;21.90;99.90;;;;;;5028515;28;20193;-73
2023/08/07 10:03:19;;;;;;;5.90;1.10;;;22.00;99.90;;;;;;5022140;28;20177;-72
2023/08/07 10:05:46;;;;;;;2.40;1.15;;;22.10;99.90;;;;;;5008844;28;20222;-73
2023/08/07 10:08:12;;;;;;;3.83;1.00;;;21.70;99.90;;;;;;5010290;28;20175;-73
2023/08/07 10:10:39;;;;;;;4.18;1.00;;;22.30;99.90;;;;;;5010474;28;20186;-73
2023/08/07 10:13:05;;;;;;;6.03;1.60;;;23.10;99.90;;;;;;5010346;28;20258;-73
2023/08/07 10:15:32;;;;;;;6.28;1.02;;;23.00;99.90;;;;;;5010395;28;20177;-73
2023/08/07 10:17:58;;;;;;;5.28;1.10;;;22.90;99.90;;;;;;5010791;28;20166;-73
2023/08/07 10:20:28;;;;;;;6.18;1.17;;;22.80;99.90;;;;;;5010498;28;20249;-73
2023/08/07 10:23:00;;;;;;;1.23;0.80;;;22.80;99.90;;;;;;5013949;28;20736;-74
2023/08/07 10:25:28;;;;;;;4.53;0.93;;;22.60;99.90;;;;;;5013648;28;20778;-73
2023/08/07 10:27:57;;;;;;;3.22;1.13;;;22.30;99.90;;;;;;5013732;28;20174;-74
2023/08/07 10:30:24;;;;;;;2.78;1.25;;;22.20;99.90;;;;;;5013759;28;20204;-74
2023/08/07 10:32:51;;;;;;;2.13;0.88;;;21.80;99.90;;;;;;5013695;28;20167;-74
2023/08/07 10:35:30;;;;;;;2.67;0.95;;;21.40;99.90;;;;;;5015876;28;20629;-74
2023/08/07 10:38:08;;;;;;;6.82;1.05;;;21.60;99.90;;;;;;5023399;28;20624;-73
2023/08/07 10:40:54;;;;;;;4.55;1.17;;;23.10;99.90;;;;;;5031538;28;20688;-74
2023/08/07 10:43:19;;;;;;;4.60;1.10;;;23.20;99.90;;;;;;5031607;28;20668;-74
2023/08/07 10:45:45;;;;;;;7.63;1.63;;;23.90;99.90;;;;;;5031629;28;20950;-74
2023/08/07 10:48:12;;;;;;;3.47;1.23;;;23.50;99.90;;;;;;5033141;28;20162;-74
2023/08/07 10:51:00;;;;;;;4.15;1.45;;;23.70;99.90;;;;;;5033092;28;20253;-74
2023/08/07 10:53:30;;;;;;;3.47;1.10;;;23.80;99.90;;;;;;5032951;28;20201;-74
2023/08/07 10:56:00;;;;;;;5.35;1.25;;;23.60;99.90;;;;;;5032760;28;20180;-74
2023/08/07 10:58:29;;;;;;;4.35;1.30;;;23.50;99.90;;;;;;5032952;28;20170;-74
2023/08/07 11:01:21;;;;;;;7.38;1.20;;;23.90;99.90;;;;;;5032725;28;20637;-74
2023/08/07 11:03:53;;;;;;;3.30;1.30;;;23.40;99.90;;;;;;5021139;28;20273;-73
2023/08/07 11:06:23;;;;;;;4.75;1.20;;;23.50;99.90;;;;;;5012916;28;20175;-74
2023/08/07 11:08:50;;;;;;;6.13;1.20;;;23.50;99.90;;;;;;5012963;28;20170;-74
2023/08/07 11:11:15;;;;;;;2.90;1.20;;;22.60;99.90;;;;;;5012951;28;20206;-74
2023/08/07 11:13:41;;;;;;;5.43;1.50;;;22.50;99.90;;;;;;5044692;28;20178;-74
2023/08/07 11:16:07;;;;;;;9.30;1.42;;;21.80;99.90;;;;;;5012704;28;20185;-73
2023/08/07 11:18:35;;;;;;;6.55;1.30;;;21.20;99.90;;;;;;5012704;28;20641;-73
2023/08/07 11:21:01;;;;;;;3.70;1.20;;;21.20;99.90;;;;;;5012676;28;20174;-73
2023/08/07 11:23:30;;;;;;;3.55;1.13;;;22.30;99.90;;;;;;5012615;28;20177;-73
2023/08/07 11:25:56;;;;;;;8.70;1.67;;;22.30;99.90;;;;;;5012502;28;20568;-73
2023/08/07 11:28:22;;;;;;;4.80;1.20;;;23.00;99.90;;;;;;5027688;28;20182;-74
2023/08/07 11:30:51;;;;;;;2.90;1.00;;;23.80;99.90;;;;;;5015032;28;20186;-75
2023/08/07 11:33:20;;;;;;;6.13;1.27;;;23.80;99.90;;;;;;5024426;28;20273;-75
2023/08/07 11:35:50;;;;;;;6.75;1.35;;;24.10;99.90;;;;;;5029380;28;20188;-75
2023/08/07 11:38:29;;;;;;;4.47;1.30;;;24.40;99.90;;;;;;5012116;28;20222;-76
2023/08/07 11:40:57;;;;;;;5.32;1.10;;;24.80;99.90;;;;;;5012231;28;20174;-76
2023/08/07 11:43:23;;;;;;;4.75;1.23;;;25.20;99.90;;;;;;5027296;28;20179;-76
2023/08/07 11:45:50;;;;;;;6.00;1.52;;;25.10;99.90;;;;;;5012049;28;20213;-75
2023/08/07 11:48:15;;;;;;;6.55;1.33;;;25.00;99.90;;;;;;5012287;28;20179;-76
2023/08/07 11:50:42;;;;;;;2.72;1.17;;;24.00;40.50;;;;;;5012145;28;20174;-76
2023/08/07 11:53:09;;;;;;;7.82;1.80;;;23.60;99.90;;;;;;5011970;28;20240;-76
2023/08/07 11:55:34;;;;;;;3.72;1.27;;;23.20;92.50;;;;;;5012222;28;20182;-77
2023/08/07 11:58:03;;;;;;;6.55;1.20;;;24.50;99.90;;;;;;5012008;28;20170;-75
2023/08/07 12:00:29;;;;;;;5.40;1.40;;;24.10;82.30;;;;;;5027227;28;20286;-75
2023/08/07 12:02:54;;;;;;;6.57;1.48;;;23.70;99.90;;;;;;5011952;28;20669;-75
2023/08/07 12:05:20;;;;;;;3.40;0.98;;;23.90;99.90;;;;;;5011874;28;20214;-75
2023/08/07 12:07:47;;;;;;;3.15;1.25;;;23.70;99.90;;;;;;5012009;28;20257;-75
2023/08/07 12:10:13;;;;;;;2.75;1.15;;;22.90;99.90;;;;;;5011892;28;20198;-76
2023/08/07 12:12:38;;;;;;;5.72;1.20;;;23.70;99.90;;;;;;5011900;28;20201;-74
2023/08/07 12:15:09;;;;;;;4.47;1.38;;;23.70;99.90;;;;;;5011778;28;20175;-74
2023/08/07 12:17:38;;;;;;;5.05;1.30;;;24.20;81.60;;;;;;5011883;28;20170;-75
2023/08/07 12:20:11;;;;;;;5.50;1.27;;;24.50;53.80;;;;;;5043611;28;20638;-74
2023/08/07 12:22:37;;;;;;;5.68;1.25;;;24.20;5.40;;;;;;5011817;28;20218;-75
2023/08/07 12:25:03;;;;;;;2.95;1.10;;;23.80;1.00;;;;;;5011622;28;20245;-75
2023/08/07 12:27:28;;;;;;;4.50;1.08;;;23.50;45.50;;;;;;5043382;28;20250;-73
2023/08/07 12:29:54;;;;;;;4.90;1.00;;;23.80;53.30;;;;;;5026622;28;20238;-74
2023/08/07 12:32:20;;;;;;;4.82;1.17;;;23.90;22.30;;;;;;5011616;28;20179;-73
2023/08/07 12:34:45;;;;;;;6.68;1.30;;;23.80;8.90;;;;;;5011633;28;20185;-74
2023/08/07 12:37:11;;;;;;;5.60;1.40;;;23.70;1.00;;;;;;5011387;28;20571;-75
2023/08/07 12:39:37;;;;;;;5.00;0.95;;;22.70;30.30;;;;;;5026475;28;20185;-76
2023/08/07 12:42:05;;;;;;;2.22;0.85;;;22.70;55.90;;;;;;5011322;28;20179;-75
2023/08/07 12:44:30;;;;;;;6.00;1.40;;;22.30;95.20;;;;;;5010335;28;20234;-74
2023/08/07 12:46:56;;;;;;;8.52;1.02;;;23.30;99.90;;;;;;5011196;28;20645;-74
2023/08/07 12:49:23;;;;;;;8.45;1.38;;;22.60;99.90;;;;;;5011178;28;20174;-74